Huvudsida
METAR-TAF:

METAR-TAF

Flygplatser :

Cajamarca, Peru

latitud: 07-08S, longitud: 078-28W, höjd: 2620 m

Aktuellt väderrapport

Denna rapport gjordes för 52 minuter sedan, klockan 09:00 UTC
Vind 2 kt varierande vindriktning
Temperatur 8°C
Fuktighet 93%
Tryck 1027 hPa
Sikt 10 km eller mer
Inga moln under 1 500 m eller inga cumulonimbus

METAR: SPJR 270900Z VRB02KT CAVOK 08/07 Q1027 RMK PP000

Tid: 04:52 (09:52 UTC)

Väderprognos

Denna rapport gjordes för 16 timmar och 52 minuter sedan, klockan 17:00 UTC
Prognos gäller från 26 kl. 18 UTC till 27 kl. 18 UTC
Vind 8 kt från syd/sydost
Sikt 10 km eller mer
Spridda moln på en höjd av 2300 ft
Brutna moln på en höjd av 4300 ft
Temporärt
från 27 kl. 12 UTC till 27 kl. 14 UTC
Vind 3 kt varierande vindriktning
Sikt: 8000 m
Spridda moln på en höjd av 2000 ft
Brutna moln på en höjd av 4000 ft

TAF: SPJR 261700Z 2618/2718 15008KT 9999 SCT023 BKN043 TX21/2619Z TN09/2711Z TEMPO 2712/2714 VRB03KT 8000 SCT020 BKN040

Aktuella väderrapporter och prognoser från 4000 flygplatser (METAR- och TAF-rapporter).

De tillgängliga stationerna syns som gula och röda prickar på kartan.

För musen över prickarna för att se namnen på stationerna.

Klicka sedan för att få väderrapporter och prognoser.

För att ändra kartan: Klicka på de gröna knapparna med ett svart kors på för att zooma in; den gröna knappen med ett streck på för att zooma ut; eller på de gröna pilarna för angränsande kartor.


METAR-TAF: